Time,TemperatureF,DewpointF,PressureIn,WindDirection,WindDirectionDegrees,WindSpeedMPH,WindSpeedGustMPH,Humidity,HourlyPrecipIn,Conditions,Clouds,dailyrainin,SoftwareType,DateUTC
2013-03-20 00:01:00,28.0,22.6,29.74,NW,315,23.0,65.0,80,0.00,,,-99.99,Weather View 32 v60,2013-03-20 04:01:00,
2013-03-20 00:06:00,28.0,21.1,29.74,NW,315,45.0,65.0,75,0.00,,,-99.99,Weather View 32 v60,2013-03-20 04:06:00,
2013-03-20 00:11:00,28.0,21.7,29.75,NW,315,20.0,65.0,77,0.00,,,-99.99,Weather View 32 v60,2013-03-20 04:11:00,
2013-03-20 00:16:00,28.0,22.6,29.75,West,270,16.0,65.0,80,0.00,,,-99.99,Weather View 32 v60,2013-03-20 04:16:00,
2013-03-20 00:21:00,28.0,20.5,29.75,NW,315,33.0,65.0,73,0.00,,,-99.99,Weather View 32 v60,2013-03-20 04:21:00,
2013-03-20 00:26:00,27.0,18.9,29.75,NW,315,22.0,65.0,71,0.00,,,-99.99,Weather View 32 v60,2013-03-20 04:26:00,
2013-03-20 00:31:00,27.0,19.5,29.75,NW,315,27.0,65.0,73,0.00,,,-99.99,Weather View 32 v60,2013-03-20 04:31:00,
2013-03-20 00:41:00,27.0,19.5,29.74,NW,315,36.0,65.0,73,0.00,,,-99.99,Weather View 32 v60,2013-03-20 04:41:00,
2013-03-20 00:46:00,27.0,20.8,29.74,NNW,337,14.0,65.0,77,0.00,,,-99.99,Weather View 32 v60,2013-03-20 04:46:00,
2013-03-20 00:51:00,27.0,21.9,29.73,NW,315,19.0,65.0,81,0.00,,,-99.99,Weather View 32 v60,2013-03-20 04:51:00,
2013-03-20 00:56:00,27.0,21.7,29.73,NW,315,25.0,65.0,80,0.00,,,-99.99,Weather View 32 v60,2013-03-20 04:56:00,
2013-03-20 01:01:00,27.0,22.5,29.74,West,270,24.0,65.0,83,0.00,,,-99.99,Weather View 32 v60,2013-03-20 05:01:00,
2013-03-20 01:06:00,27.0,21.1,29.74,WNW,292,31.0,65.0,78,0.00,,,-99.99,Weather View 32 v60,2013-03-20 05:06:00,
2013-03-20 01:11:00,27.0,22.5,29.73,WNW,292,28.0,40.0,83,0.00,,,-99.99,Weather View 32 v60,2013-03-20 05:11:00,
2013-03-20 01:26:00,27.0,21.1,29.75,NW,315,27.0,45.0,78,0.00,,,-99.99,Weather View 32 v60,2013-03-20 05:26:00,
2013-03-20 01:31:00,27.0,19.2,29.75,NW,315,35.0,45.0,72,0.00,,,-99.99,Weather View 32 v60,2013-03-20 05:31:00,
2013-03-20 01:41:00,27.0,19.5,29.75,NW,315,23.0,57.0,73,0.00,,,-99.99,Weather View 32 v60,2013-03-20 05:41:00,
2013-03-20 01:46:00,26.0,18.5,29.75,West,270,17.0,57.0,73,0.00,,,-99.99,Weather View 32 v60,2013-03-20 05:46:00,
2013-03-20 01:51:00,26.0,20.7,29.75,NW,315,14.0,57.0,80,0.00,,,-99.99,Weather View 32 v60,2013-03-20 05:51:00,
2013-03-20 01:56:00,26.0,17.9,29.75,NW,315,27.0,57.0,71,0.00,,,-99.99,Weather View 32 v60,2013-03-20 05:56:00,
2013-03-20 02:01:00,26.0,17.9,29.75,NW,315,34.0,57.0,71,0.00,,,-99.99,Weather View 32 v60,2013-03-20 06:01:00,
2013-03-20 02:06:00,25.0,16.3,29.75,NNW,337,13.0,57.0,69,0.00,,,-99.99,Weather View 32 v60,2013-03-20 06:06:00,
2013-03-20 02:11:00,25.0,17.6,29.74,NNW,337,26.0,57.0,73,0.00,,,-99.99,Weather View 32 v60,2013-03-20 06:11:00,
2013-03-20 02:16:00,25.0,15.9,29.74,NW,315,38.0,57.0,68,0.00,,,-99.99,Weather View 32 v60,2013-03-20 06:16:00,
2013-03-20 02:21:00,25.0,17.2,29.75,NW,315,26.0,57.0,72,0.00,,,-99.99,Weather View 32 v60,2013-03-20 06:21:00,
2013-03-20 02:26:00,25.0,17.9,29.75,NW,315,32.0,57.0,74,0.00,,,-99.99,Weather View 32 v60,2013-03-20 06:26:00,
2013-03-20 02:31:00,25.0,16.6,29.74,NNW,337,20.0,57.0,70,0.00,,,-99.99,Weather View 32 v60,2013-03-20 06:31:00,
2013-03-20 02:36:00,25.0,16.6,29.74,NW,315,21.0,53.0,70,0.00,,,-99.99,Weather View 32 v60,2013-03-20 06:36:00,
2013-03-20 02:41:00,25.0,20.3,29.75,NW,315,26.0,53.0,82,0.00,,,-99.99,Weather View 32 v60,2013-03-20 06:41:00,
2013-03-20 02:46:00,25.0,20.0,29.75,NW,315,36.0,53.0,81,0.00,,,-99.99,Weather View 32 v60,2013-03-20 06:46:00,
2013-03-20 03:01:00,24.0,16.9,29.75,NW,315,38.0,59.0,74,0.00,,,-99.99,Weather View 32 v60,2013-03-20 07:01:00,
2013-03-20 03:06:00,25.0,20.0,29.75,West,270,24.0,63.0,81,0.00,,,-99.99,Weather View 32 v60,2013-03-20 07:06:00,
2013-03-20 03:11:00,25.0,20.6,29.74,NW,315,30.0,63.0,83,0.00,,,-99.99,Weather View 32 v60,2013-03-20 07:11:00,
2013-03-20 03:16:00,24.0,18.1,29.74,NNW,337,34.0,63.0,78,0.00,,,-99.99,Weather View 32 v60,2013-03-20 07:16:00,
2013-03-20 03:26:00,24.0,19.3,29.73,NW,315,21.0,63.0,82,0.00,,,-99.99,Weather View 32 v60,2013-03-20 07:26:00,
2013-03-20 03:31:00,24.0,19.9,29.72,NW,315,29.0,63.0,84,0.00,,,-99.99,Weather View 32 v60,2013-03-20 07:31:00,
2013-03-20 03:36:00,24.0,19.9,29.72,NW,315,34.0,63.0,84,0.00,,,-99.99,Weather View 32 v60,2013-03-20 07:36:00,
2013-03-20 03:41:00,24.0,19.6,29.73,NW,315,26.0,63.0,83,0.00,,,-99.99,Weather View 32 v60,2013-03-20 07:41:00,
2013-03-20 03:46:00,24.0,20.4,29.73,SW,225,11.0,63.0,86,0.00,,,-99.99,Weather View 32 v60,2013-03-20 07:46:00,
2013-03-20 03:51:00,24.0,18.4,29.75,NW,315,16.0,63.0,79,0.00,,,-99.99,Weather View 32 v60,2013-03-20 07:51:00,
2013-03-20 03:56:00,23.0,16.6,29.75,NW,315,31.0,63.0,76,0.00,,,-99.99,Weather View 32 v60,2013-03-20 07:56:00,
2013-03-20 04:06:00,23.0,17.5,29.74,NW,315,22.0,46.0,79,0.00,,,-99.99,Weather View 32 v60,2013-03-20 08:06:00,
2013-03-20 04:11:00,23.0,17.2,29.74,NW,315,16.0,46.0,78,0.00,,,-99.99,Weather View 32 v60,2013-03-20 08:11:00,
2013-03-20 04:16:00,24.0,20.4,29.74,NW,315,26.0,46.0,86,0.00,,,-99.99,Weather View 32 v60,2013-03-20 08:16:00,
2013-03-20 04:21:00,24.0,21.0,29.73,NW,315,22.0,46.0,88,0.00,,,-99.99,Weather View 32 v60,2013-03-20 08:21:00,
2013-03-20 04:26:00,23.0,18.6,29.73,NW,315,25.0,46.0,83,0.00,,,-99.99,Weather View 32 v60,2013-03-20 08:26:00,
2013-03-20 04:31:00,23.0,19.2,29.73,NNW,337,23.0,55.0,85,0.00,,,-99.99,Weather View 32 v60,2013-03-20 08:31:00,
2013-03-20 04:41:00,23.0,19.2,29.73,North,360,9.0,55.0,85,0.00,,,-99.99,Weather View 32 v60,2013-03-20 08:41:00,
2013-03-20 04:46:00,23.0,18.9,29.73,NNW,337,38.0,55.0,84,0.00,,,-99.99,Weather View 32 v60,2013-03-20 08:46:00,
2013-03-20 04:56:00,23.0,19.4,29.73,NW,315,52.0,61.0,86,0.00,,,-99.99,Weather View 32 v60,2013-03-20 08:56:00,
2013-03-20 05:01:00,23.0,19.7,29.74,NW,315,46.0,61.0,87,0.00,,,-99.99,Weather View 32 v60,2013-03-20 09:01:00,
2013-03-20 05:11:00,23.0,19.2,29.73,North,360,16.0,61.0,85,0.00,,,-99.99,Weather View 32 v60,2013-03-20 09:11:00,
2013-03-20 05:16:00,23.0,19.2,29.73,NW,315,11.0,61.0,85,0.00,,,-99.99,Weather View 32 v60,2013-03-20 09:16:00,
2013-03-20 05:21:00,23.0,19.2,29.74,NNW,337,16.0,61.0,85,0.00,,,-99.99,Weather View 32 v60,2013-03-20 09:21:00,
2013-03-20 05:26:00,23.0,19.2,29.74,NW,315,24.0,61.0,85,0.00,,,-99.99,Weather View 32 v60,2013-03-20 09:26:00,
2013-03-20 05:31:00,23.0,19.4,29.74,WNW,292,24.0,61.0,86,0.00,,,-99.99,Weather View 32 v60,2013-03-20 09:31:00,
2013-03-20 05:36:00,23.0,19.2,29.74,NNW,337,10.0,61.0,85,0.00,,,-99.99,Weather View 32 v60,2013-03-20 09:36:00,
2013-03-20 05:46:00,23.0,20.5,29.74,NW,315,24.0,61.0,90,0.00,,,-99.99,Weather View 32 v60,2013-03-20 09:46:00,
2013-03-20 05:56:00,23.0,20.0,29.73,NW,315,30.0,56.0,88,0.00,,,-99.99,Weather View 32 v60,2013-03-20 09:56:00,
2013-03-20 06:01:00,22.0,18.7,29.74,WNW,292,22.0,56.0,87,0.00,,,-99.99,Weather View 32 v60,2013-03-20 10:01:00,
2013-03-20 06:06:00,22.0,19.8,29.74,West,270,23.0,39.0,91,0.00,,,-99.99,Weather View 32 v60,2013-03-20 10:06:00,
2013-03-20 06:11:00,22.0,18.2,29.74,NW,315,18.0,39.0,85,0.00,,,-99.99,Weather View 32 v60,2013-03-20 10:11:00,
2013-03-20 06:16:00,22.0,19.3,29.74,NW,315,12.0,39.0,89,0.00,,,-99.99,Weather View 32 v60,2013-03-20 10:16:00,
2013-03-20 06:21:00,22.0,18.7,29.73,NW,315,25.0,39.0,87,0.00,,,-99.99,Weather View 32 v60,2013-03-20 10:21:00,
2013-03-20 06:26:00,22.0,19.3,29.73,NW,315,29.0,54.0,89,0.00,,,-99.99,Weather View 32 v60,2013-03-20 10:26:00,
2013-03-20 06:31:00,22.0,17.9,29.75,NW,315,30.0,54.0,84,0.00,,,-99.99,Weather View 32 v60,2013-03-20 10:31:00,
2013-03-20 06:36:00,22.0,19.3,29.75,NW,315,16.0,54.0,89,0.00,,,-99.99,Weather View 32 v60,2013-03-20 10:36:00,
2013-03-20 06:41:00,22.0,19.0,29.75,South,180,8.0,54.0,88,0.00,,,-99.99,Weather View 32 v60,2013-03-20 10:41:00,
2013-03-20 06:46:00,22.0,19.5,29.75,NW,315,15.0,54.0,90,0.00,,,-99.99,Weather View 32 v60,2013-03-20 10:46:00,
2013-03-20 06:51:00,22.0,19.0,29.75,North,360,12.0,54.0,88,0.00,,,-99.99,Weather View 32 v60,2013-03-20 10:51:00,
2013-03-20 06:56:00,22.0,19.5,29.75,NW,315,16.0,54.0,90,0.00,,,-99.99,Weather View 32 v60,2013-03-20 10:56:00,
2013-03-20 07:01:00,22.0,19.3,29.75,NW,315,17.0,54.0,89,0.00,,,-99.99,Weather View 32 v60,2013-03-20 11:01:00,
2013-03-20 07:06:00,22.0,19.8,29.75,NW,315,25.0,54.0,91,0.00,,,-99.99,Weather View 32 v60,2013-03-20 11:06:00,
2013-03-20 07:11:00,22.0,19.0,29.75,North,360,13.0,54.0,88,0.00,,,-99.99,Weather View 32 v60,2013-03-20 11:11:00,
2013-03-20 07:16:00,22.0,19.3,29.75,North,360,9.0,54.0,89,0.00,,,-99.99,Weather View 32 v60,2013-03-20 11:16:00,
2013-03-20 07:21:00,22.0,19.3,29.76,North,360,19.0,54.0,89,0.00,,,-99.99,Weather View 32 v60,2013-03-20 11:21:00,
2013-03-20 07:26:00,22.0,18.7,29.76,NW,315,21.0,53.0,87,0.00,,,-99.99,Weather View 32 v60,2013-03-20 11:26:00,
2013-03-20 07:31:00,21.0,17.5,29.76,NW,315,26.0,53.0,86,0.00,,,-99.99,Weather View 32 v60,2013-03-20 11:31:00,
2013-03-20 07:36:00,22.0,20.0,29.76,NW,315,20.0,53.0,92,0.00,,,-99.99,Weather View 32 v60,2013-03-20 11:36:00,
2013-03-20 07:46:00,21.0,17.5,29.75,North,360,16.0,53.0,86,0.00,,,-99.99,Weather View 32 v60,2013-03-20 11:46:00,
2013-03-20 07:51:00,21.0,18.5,29.76,North,360,13.0,43.0,90,0.00,,,-99.99,Weather View 32 v60,2013-03-20 11:51:00,
2013-03-20 07:56:00,21.0,18.5,29.76,NW,315,26.0,43.0,90,0.00,,,-99.99,Weather View 32 v60,2013-03-20 11:56:00,
2013-03-20 08:01:00,21.0,18.0,29.76,NW,315,17.0,43.0,88,0.00,,,-99.99,Weather View 32 v60,2013-03-20 12:01:00,
2013-03-20 08:06:00,21.0,19.0,29.76,NW,315,6.0,43.0,92,0.00,,,-99.99,Weather View 32 v60,2013-03-20 12:06:00,
2013-03-20 08:16:00,21.0,18.5,29.77,NW,315,18.0,43.0,90,0.00,,,-99.99,Weather View 32 v60,2013-03-20 12:16:00,
2013-03-20 08:31:00,20.0,17.3,29.77,NW,315,17.0,43.0,89,0.00,,,-99.99,Weather View 32 v60,2013-03-20 12:31:00,
2013-03-20 08:36:00,20.0,17.5,29.77,NW,315,24.0,42.0,90,0.00,,,-99.99,Weather View 32 v60,2013-03-20 12:36:00,
2013-03-20 08:46:00,20.0,18.1,29.76,WNW,292,14.0,42.0,92,0.00,,,-99.99,Weather View 32 v60,2013-03-20 12:46:00,
2013-03-20 08:51:00,20.0,17.8,29.76,NNW,337,15.0,45.0,91,0.00,,,-99.99,Weather View 32 v60,2013-03-20 12:51:00,
2013-03-20 08:56:00,20.0,17.5,29.76,NW,315,21.0,45.0,90,0.00,,,-99.99,Weather View 32 v60,2013-03-20 12:56:00,
2013-03-20 09:01:00,20.0,18.8,29.77,NW,315,23.0,45.0,95,0.00,,,-99.99,Weather View 32 v60,2013-03-20 13:01:00,
2013-03-20 09:11:00,20.0,18.8,29.75,NNW,337,20.0,45.0,95,0.00,,,-99.99,Weather View 32 v60,2013-03-20 13:11:00,
2013-03-20 09:16:00,20.0,18.3,29.75,NW,315,21.0,45.0,93,0.00,,,-99.99,Weather View 32 v60,2013-03-20 13:16:00,
2013-03-20 09:21:00,20.0,17.8,29.76,NW,315,24.0,45.0,91,0.00,,,-99.99,Weather View 32 v60,2013-03-20 13:21:00,
2013-03-20 09:26:00,20.0,19.0,29.76,NW,315,24.0,45.0,96,0.00,,,-99.99,Weather View 32 v60,2013-03-20 13:26:00,
2013-03-20 09:31:00,20.0,19.0,29.77,NW,315,24.0,45.0,96,0.00,,,-99.99,Weather View 32 v60,2013-03-20 13:31:00,
2013-03-20 09:36:00,20.0,19.3,29.77,NNW,337,16.0,45.0,97,0.00,,,-99.99,Weather View 32 v60,2013-03-20 13:36:00,
2013-03-20 09:46:00,20.0,18.6,29.78,NW,315,22.0,45.0,94,0.00,,,-99.99,Weather View 32 v60,2013-03-20 13:46:00,
2013-03-20 09:51:00,19.0,18.8,29.78,NW,315,25.0,33.0,99,0.00,,,-99.99,Weather View 32 v60,2013-03-20 13:51:00,
2013-03-20 09:56:00,19.0,18.3,29.78,NW,315,22.0,33.0,97,0.00,,,-99.99,Weather View 32 v60,2013-03-20 13:56:00,
2013-03-20 10:01:00,20.0,20.0,29.77,NW,315,23.0,33.0,100,0.00,,,-99.99,Weather View 32 v60,2013-03-20 14:01:00,
2013-03-20 10:06:00,19.0,18.0,29.77,NW,315,28.0,33.0,96,0.00,,,-99.99,Weather View 32 v60,2013-03-20 14:06:00,
2013-03-20 10:11:00,19.0,17.3,29.77,NW,315,25.0,38.0,93,0.00,,,-99.99,Weather View 32 v60,2013-03-20 14:11:00,
2013-03-20 10:16:00,19.0,18.0,29.77,NW,315,18.0,38.0,96,0.00,,,-99.99,Weather View 32 v60,2013-03-20 14:16:00,
2013-03-20 10:21:00,19.0,18.3,29.78,NW,315,25.0,38.0,97,0.00,,,-99.99,Weather View 32 v60,2013-03-20 14:21:00,
2013-03-20 10:26:00,19.0,18.5,29.78,NW,315,24.0,38.0,98,0.00,,,-99.99,Weather View 32 v60,2013-03-20 14:26:00,
2013-03-20 10:31:00,19.0,19.0,29.78,NW,315,26.0,38.0,100,0.00,,,-99.99,Weather View 32 v60,2013-03-20 14:31:00,
2013-03-20 10:38:00,19.0,18.0,29.78,NW,315,28.0,38.0,96,0.00,,,-99.99,Weather View 32 v60,2013-03-20 14:38:00,
2013-03-20 10:46:00,19.0,18.3,29.77,WNW,292,15.0,43.0,97,0.00,,,-99.99,Weather View 32 v60,2013-03-20 14:46:00,
2013-03-20 10:51:00,18.0,18.0,29.78,NW,315,31.0,44.0,100,0.00,,,-99.99,Weather View 32 v60,2013-03-20 14:51:00,
2013-03-20 10:56:00,18.0,18.0,29.78,NW,315,31.0,48.0,100,0.00,,,-99.99,Weather View 32 v60,2013-03-20 14:56:00,
2013-03-20 11:01:00,18.0,17.3,29.78,NW,315,21.0,48.0,97,0.00,,,-99.99,Weather View 32 v60,2013-03-20 15:01:00,
2013-03-20 11:06:00,18.0,18.0,29.78,NW,315,20.0,48.0,100,0.00,,,-99.99,Weather View 32 v60,2013-03-20 15:06:00,
2013-03-20 11:11:00,18.0,18.0,29.78,NW,315,17.0,48.0,100,0.00,,,-99.99,Weather View 32 v60,2013-03-20 15:11:00,
2013-03-20 11:16:00,18.0,18.0,29.78,NW,315,27.0,48.0,100,0.00,,,-99.99,Weather View 32 v60,2013-03-20 15:16:00,
2013-03-20 11:21:00,18.0,18.0,29.78,NW,315,27.0,51.0,100,0.00,,,-99.99,Weather View 32 v60,2013-03-20 15:21:00,
2013-03-20 11:31:00,18.0,18.0,29.78,NW,315,14.0,51.0,100,0.00,,,-99.99,Weather View 32 v60,2013-03-20 15:31:00,
2013-03-20 11:36:00,17.0,17.0,29.78,NW,315,29.0,51.0,100,0.00,,,-99.99,Weather View 32 v60,2013-03-20 15:36:00,
2013-03-20 11:41:00,17.0,17.0,29.79,NW,315,30.0,51.0,100,0.00,,,-99.99,Weather View 32 v60,2013-03-20 15:41:00,
2013-03-20 11:46:00,18.0,18.0,29.79,NW,315,21.0,51.0,100,0.00,,,-99.99,Weather View 32 v60,2013-03-20 15:46:00,
2013-03-20 11:56:00,17.0,17.0,29.79,West,270,19.0,51.0,100,0.00,,,-99.99,Weather View 32 v60,2013-03-20 15:56:00,
2013-03-20 12:06:00,17.0,17.0,29.79,NW,315,45.0,52.0,100,0.00,,,-99.99,Weather View 32 v60,2013-03-20 16:06:00,
2013-03-20 12:11:00,17.0,17.0,29.80,NNE,22,16.0,56.0,100,0.00,,,-99.99,Weather View 32 v60,2013-03-20 16:11:00,
2013-03-20 12:16:00,17.0,17.0,29.80,NW,315,25.0,56.0,100,0.00,,,-99.99,Weather View 32 v60,2013-03-20 16:16:00,
2013-03-20 12:21:00,18.0,18.0,29.79,NW,315,6.0,56.0,100,0.00,,,-99.99,Weather View 32 v60,2013-03-20 16:21:00,
2013-03-20 12:26:00,17.0,17.0,29.79,West,270,26.0,56.0,100,0.00,,,-99.99,Weather View 32 v60,2013-03-20 16:26:00,
2013-03-20 12:31:00,17.0,17.0,29.79,NNW,337,18.0,56.0,100,0.00,,,-99.99,Weather View 32 v60,2013-03-20 16:31:00,
2013-03-20 12:36:00,17.0,17.0,29.79,West,270,22.0,56.0,100,0.00,,,-99.99,Weather View 32 v60,2013-03-20 16:36:00,
2013-03-20 12:46:00,17.0,17.0,29.79,NW,315,22.0,56.0,100,0.00,,,-99.99,Weather View 32 v60,2013-03-20 16:46:00,
2013-03-20 13:01:00,17.0,17.0,29.78,NW,315,24.0,56.0,100,0.00,,,-99.99,Weather View 32 v60,2013-03-20 17:01:00,
2013-03-20 13:11:00,17.0,17.0,29.79,NW,315,29.0,51.0,100,0.00,,,-99.99,Weather View 32 v60,2013-03-20 17:11:00,
2013-03-20 13:16:00,17.0,17.0,29.79,NW,315,26.0,51.0,100,0.00,,,-99.99,Weather View 32 v60,2013-03-20 17:16:00,
2013-03-20 13:21:00,17.0,17.0,29.79,NW,315,23.0,51.0,100,0.00,,,-99.99,Weather View 32 v60,2013-03-20 17:21:00,
2013-03-20 13:26:00,17.0,17.0,29.79,NW,315,12.0,51.0,100,0.00,,,-99.99,Weather View 32 v60,2013-03-20 17:26:00,
2013-03-20 13:36:00,17.0,17.0,29.79,WNW,292,10.0,51.0,100,0.00,,,-99.99,Weather View 32 v60,2013-03-20 17:36:00,
2013-03-20 13:46:00,18.0,18.0,29.79,NW,315,21.0,51.0,100,0.00,,,-99.99,Weather View 32 v60,2013-03-20 17:46:00,
2013-03-20 13:51:00,17.0,17.0,29.79,WNW,292,18.0,51.0,100,0.00,,,-99.99,Weather View 32 v60,2013-03-20 17:51:00,
2013-03-20 13:56:00,18.0,18.0,29.79,NW,315,23.0,51.0,100,0.00,,,-99.99,Weather View 32 v60,2013-03-20 17:56:00,
2013-03-20 14:01:00,18.0,18.0,29.79,WNW,292,27.0,51.0,100,0.00,,,-99.99,Weather View 32 v60,2013-03-20 18:01:00,
2013-03-20 14:06:00,18.0,18.0,29.79,NW,315,29.0,51.0,100,0.00,,,-99.99,Weather View 32 v60,2013-03-20 18:06:00,
2013-03-20 14:11:00,18.0,18.0,29.77,WNW,292,27.0,49.0,100,0.00,,,-99.99,Weather View 32 v60,2013-03-20 18:11:00,
2013-03-20 14:16:00,18.0,18.0,29.77,West,270,34.0,49.0,100,0.00,,,-99.99,Weather View 32 v60,2013-03-20 18:16:00,
2013-03-20 14:21:00,17.0,17.0,29.78,West,270,24.0,49.0,100,0.00,,,-99.99,Weather View 32 v60,2013-03-20 18:21:00,
2013-03-20 14:26:00,17.0,17.0,29.78,NW,315,26.0,49.0,100,0.00,,,-99.99,Weather View 32 v60,2013-03-20 18:26:00,
2013-03-20 14:31:00,17.0,16.8,29.79,WNW,292,20.0,49.0,99,0.00,,,-99.99,Weather View 32 v60,2013-03-20 18:31:00,
2013-03-20 14:36:00,18.0,18.0,29.79,WNW,292,22.0,49.0,100,0.00,,,-99.99,Weather View 32 v60,2013-03-20 18:36:00,
2013-03-20 14:46:00,17.0,17.0,29.78,WNW,292,26.0,49.0,100,0.00,,,-99.99,Weather View 32 v60,2013-03-20 18:46:00,
2013-03-20 14:51:00,17.0,17.0,29.78,NW,315,15.0,49.0,100,0.00,,,-99.99,Weather View 32 v60,2013-03-20 18:51:00,
2013-03-20 14:56:00,17.0,16.8,29.78,NW,315,25.0,49.0,99,0.00,,,-99.99,Weather View 32 v60,2013-03-20 18:56:00,
2013-03-20 15:01:00,18.0,17.3,29.78,NW,315,13.0,49.0,97,0.00,,,-99.99,Weather View 32 v60,2013-03-20 19:01:00,
2013-03-20 15:06:00,18.0,18.0,29.78,NW,315,19.0,49.0,100,0.00,,,-99.99,Weather View 32 v60,2013-03-20 19:06:00,
2013-03-20 15:11:00,18.0,17.8,29.78,NW,315,19.0,43.0,99,0.00,,,-99.99,Weather View 32 v60,2013-03-20 19:11:00,
2013-03-20 15:16:00,18.0,18.0,29.78,NW,315,23.0,41.0,100,0.00,,,-99.99,Weather View 32 v60,2013-03-20 19:16:00,
2013-03-20 15:26:00,17.0,17.0,29.77,NW,315,23.0,40.0,100,0.00,,,-99.99,Weather View 32 v60,2013-03-20 19:26:00,
2013-03-20 15:31:00,18.0,17.8,29.78,NW,315,27.0,40.0,99,0.00,,,-99.99,Weather View 32 v60,2013-03-20 19:31:00,
2013-03-20 15:36:00,17.0,16.3,29.78,NW,315,19.0,40.0,97,0.00,,,-99.99,Weather View 32 v60,2013-03-20 19:36:00,
2013-03-20 15:41:00,17.0,17.0,29.78,NW,315,17.0,40.0,100,0.00,,,-99.99,Weather View 32 v60,2013-03-20 19:41:00,
2013-03-20 15:46:00,17.0,16.1,29.78,NW,315,21.0,40.0,96,0.00,,,-99.99,Weather View 32 v60,2013-03-20 19:46:00,
2013-03-20 15:56:00,17.0,15.8,29.77,NW,315,18.0,40.0,95,0.00,,,-99.99,Weather View 32 v60,2013-03-20 19:56:00,
2013-03-20 16:01:00,18.0,17.8,29.77,North,360,28.0,39.0,99,0.00,,,-99.99,Weather View 32 v60,2013-03-20 20:01:00,
2013-03-20 16:06:00,17.0,17.0,29.77,NW,315,24.0,39.0,100,0.00,,,-99.99,Weather View 32 v60,2013-03-20 20:06:00,
2013-03-20 16:11:00,18.0,16.6,29.77,NW,315,18.0,39.0,94,0.00,,,-99.99,Weather View 32 v60,2013-03-20 20:11:00,
2013-03-20 16:16:00,18.0,16.6,29.77,NW,315,29.0,39.0,94,0.00,,,-99.99,Weather View 32 v60,2013-03-20 20:16:00,
2013-03-20 16:21:00,18.0,17.3,29.78,NW,315,21.0,39.0,97,0.00,,,-99.99,Weather View 32 v60,2013-03-20 20:21:00,
2013-03-20 16:26:00,18.0,16.1,29.78,WNW,292,26.0,33.0,92,0.00,,,-99.99,Weather View 32 v60,2013-03-20 20:26:00,
2013-03-20 16:31:00,18.0,15.8,29.77,NW,315,20.0,33.0,91,0.00,,,-99.99,Weather View 32 v60,2013-03-20 20:31:00,
2013-03-20 16:36:00,18.0,16.6,29.77,West,270,16.0,33.0,94,0.00,,,-99.99,Weather View 32 v60,2013-03-20 20:36:00,
2013-03-20 16:41:00,18.0,15.6,29.77,NW,315,22.0,33.0,90,0.00,,,-99.99,Weather View 32 v60,2013-03-20 20:41:00,
2013-03-20 16:51:00,18.0,16.8,29.77,WNW,292,24.0,46.0,95,0.00,,,-99.99,Weather View 32 v60,2013-03-20 20:51:00,
2013-03-20 16:56:00,18.0,17.3,29.77,NW,315,24.0,46.0,97,0.00,,,-99.99,Weather View 32 v60,2013-03-20 20:56:00,
2013-03-20 17:01:00,18.0,17.1,29.78,West,270,23.0,46.0,96,0.00,,,-99.99,Weather View 32 v60,2013-03-20 21:01:00,
2013-03-20 17:06:00,18.0,17.1,29.78,NW,315,23.0,46.0,96,0.00,,,-99.99,Weather View 32 v60,2013-03-20 21:06:00,
2013-03-20 17:11:00,18.0,17.3,29.78,NW,315,25.0,46.0,97,0.00,,,-99.99,Weather View 32 v60,2013-03-20 21:11:00,
2013-03-20 17:16:00,17.0,16.8,29.78,NW,315,27.0,46.0,99,0.00,,,-99.99,Weather View 32 v60,2013-03-20 21:16:00,
2013-03-20 17:26:00,17.0,16.3,29.78,NW,315,29.0,48.0,97,0.00,,,-99.99,Weather View 32 v60,2013-03-20 21:26:00,
2013-03-20 17:31:00,18.0,17.8,29.78,WNW,292,25.0,48.0,99,0.00,,,-99.99,Weather View 32 v60,2013-03-20 21:31:00,
2013-03-20 17:41:00,18.0,16.1,29.78,NW,315,30.0,48.0,92,0.00,,,-99.99,Weather View 32 v60,2013-03-20 21:41:00,
2013-03-20 17:46:00,18.0,16.6,29.78,NW,315,29.0,48.0,94,0.00,,,-99.99,Weather View 32 v60,2013-03-20 21:46:00,
2013-03-20 17:51:00,18.0,16.3,29.78,NW,315,21.0,48.0,93,0.00,,,-99.99,Weather View 32 v60,2013-03-20 21:51:00,
2013-03-20 18:01:00,18.0,16.3,29.79,NW,315,23.0,48.0,93,0.00,,,-99.99,Weather View 32 v60,2013-03-20 22:01:00,
2013-03-20 18:06:00,18.0,17.3,29.79,NW,315,26.0,48.0,97,0.00,,,-99.99,Weather View 32 v60,2013-03-20 22:06:00,
2013-03-20 18:11:00,18.0,16.8,29.78,West,270,24.0,48.0,95,0.00,,,-99.99,Weather View 32 v60,2013-03-20 22:11:00,
2013-03-20 18:16:00,18.0,17.1,29.78,WNW,292,24.0,48.0,96,0.00,,,-99.99,Weather View 32 v60,2013-03-20 22:16:00,
2013-03-20 18:21:00,18.0,14.8,29.79,NW,315,24.0,44.0,87,0.00,,,-99.99,Weather View 32 v60,2013-03-20 22:21:00,
2013-03-20 18:26:00,18.0,16.6,29.79,NW,315,11.0,44.0,94,0.00,,,-99.99,Weather View 32 v60,2013-03-20 22:26:00,
2013-03-20 18:31:00,18.0,16.6,29.79,NW,315,17.0,44.0,94,0.00,,,-99.99,Weather View 32 v60,2013-03-20 22:31:00,
2013-03-20 18:36:00,18.0,16.3,29.79,NW,315,15.0,44.0,93,0.00,,,-99.99,Weather View 32 v60,2013-03-20 22:36:00,
2013-03-20 18:41:00,18.0,15.3,29.79,NNW,337,18.0,44.0,89,0.00,,,-99.99,Weather View 32 v60,2013-03-20 22:41:00,
2013-03-20 18:46:00,18.0,16.8,29.79,NNE,22,16.0,44.0,95,0.00,,,-99.99,Weather View 32 v60,2013-03-20 22:46:00,
2013-03-20 18:51:00,17.0,17.0,29.79,NW,315,27.0,44.0,100,0.00,,,-99.99,Weather View 32 v60,2013-03-20 22:51:00,
2013-03-20 18:56:00,17.0,17.0,29.79,WNW,292,16.0,44.0,100,0.00,,,-99.99,Weather View 32 v60,2013-03-20 22:56:00,
2013-03-20 19:01:00,17.0,17.0,29.79,West,270,13.0,44.0,100,0.00,,,-99.99,Weather View 32 v60,2013-03-20 23:01:00,
2013-03-20 19:06:00,17.0,17.0,29.79,NW,315,18.0,36.0,100,0.00,,,-99.99,Weather View 32 v60,2013-03-20 23:06:00,
2013-03-20 19:16:00,17.0,15.8,29.79,NW,315,17.0,52.0,95,0.00,,,-99.99,Weather View 32 v60,2013-03-20 23:16:00,
2013-03-20 19:26:00,18.0,18.0,29.79,NW,315,19.0,52.0,100,0.00,,,-99.99,Weather View 32 v60,2013-03-20 23:26:00,
2013-03-20 19:31:00,17.0,16.8,29.79,NW,315,19.0,52.0,99,0.00,,,-99.99,Weather View 32 v60,2013-03-20 23:31:00,
2013-03-20 19:36:00,18.0,17.1,29.79,NW,315,19.0,52.0,96,0.00,,,-99.99,Weather View 32 v60,2013-03-20 23:36:00,
2013-03-20 19:41:00,18.0,14.5,29.78,NW,315,13.0,52.0,86,0.00,,,-99.99,Weather View 32 v60,2013-03-20 23:41:00,
2013-03-20 19:46:00,18.0,18.0,29.78,NW,315,21.0,52.0,100,0.00,,,-99.99,Weather View 32 v60,2013-03-20 23:46:00,
2013-03-20 19:51:00,18.0,17.5,29.79,WNW,292,13.0,52.0,98,0.00,,,-99.99,Weather View 32 v60,2013-03-20 23:51:00,
2013-03-20 19:56:00,18.0,14.0,29.79,NW,315,23.0,52.0,84,0.00,,,-99.99,Weather View 32 v60,2013-03-20 23:56:00,
2013-03-20 20:01:00,18.0,18.0,29.78,NNW,337,13.0,52.0,100,0.00,,,-99.99,Weather View 32 v60,2013-03-21 00:01:00,
2013-03-20 20:06:00,18.0,18.0,29.78,North,360,18.0,52.0,100,0.00,,,-99.99,Weather View 32 v60,2013-03-21 00:06:00,
2013-03-20 20:11:00,18.0,18.0,29.79,NW,315,15.0,52.0,100,0.00,,,-99.99,Weather View 32 v60,2013-03-21 00:11:00,
2013-03-20 20:16:00,17.0,17.0,29.79,NW,315,18.0,45.0,100,0.00,,,-99.99,Weather View 32 v60,2013-03-21 00:16:00,
2013-03-20 20:21:00,17.0,17.0,29.79,North,360,14.0,45.0,100,0.00,,,-99.99,Weather View 32 v60,2013-03-21 00:21:00,
2013-03-20 20:26:00,17.0,17.0,29.79,North,360,6.0,45.0,100,0.00,,,-99.99,Weather View 32 v60,2013-03-21 00:26:00,
2013-03-20 20:31:00,17.0,17.0,29.79,NNW,337,18.0,45.0,100,0.00,,,-99.99,Weather View 32 v60,2013-03-21 00:31:00,
2013-03-20 20:36:00,17.0,17.0,29.79,NW,315,12.0,34.0,100,0.00,,,-99.99,Weather View 32 v60,2013-03-21 00:36:00,
2013-03-20 20:41:00,18.0,18.0,29.80,NW,315,17.0,34.0,100,0.00,,,-99.99,Weather View 32 v60,2013-03-21 00:41:00,
2013-03-20 20:51:00,16.0,16.0,29.80,North,360,7.0,35.0,100,0.00,,,-99.99,Weather View 32 v60,2013-03-21 00:51:00,
2013-03-20 20:56:00,18.0,17.5,29.80,NW,315,19.0,35.0,98,0.00,,,-99.99,Weather View 32 v60,2013-03-21 00:56:00,
2013-03-20 21:01:00,18.0,18.0,29.80,North,360,16.0,35.0,100,0.00,,,-99.99,Weather View 32 v60,2013-03-21 01:01:00,
2013-03-20 21:06:00,18.0,18.0,29.80,North,360,18.0,36.0,100,0.00,,,-99.99,Weather View 32 v60,2013-03-21 01:06:00,
2013-03-20 21:11:00,18.0,18.0,29.80,North,360,27.0,45.0,100,0.00,,,-99.99,Weather View 32 v60,2013-03-21 01:11:00,
2013-03-20 21:16:00,18.0,18.0,29.80,NW,315,23.0,45.0,100,0.00,,,-99.99,Weather View 32 v60,2013-03-21 01:16:00,
2013-03-20 21:21:00,18.0,18.0,29.79,NW,315,27.0,45.0,100,0.00,,,-99.99,Weather View 32 v60,2013-03-21 01:21:00,
2013-03-20 21:26:00,18.0,15.8,29.79,NW,315,16.0,45.0,91,0.00,,,-99.99,Weather View 32 v60,2013-03-21 01:26:00,
2013-03-20 21:31:00,18.0,16.8,29.79,North,360,11.0,45.0,95,0.00,,,-99.99,Weather View 32 v60,2013-03-21 01:31:00,
2013-03-20 21:41:00,18.0,16.8,29.79,North,360,13.0,45.0,95,0.00,,,-99.99,Weather View 32 v60,2013-03-21 01:41:00,
2013-03-20 21:51:00,19.0,17.6,29.79,WNW,292,15.0,45.0,94,0.00,,,-99.99,Weather View 32 v60,2013-03-21 01:51:00,
2013-03-20 21:56:00,18.0,17.8,29.79,North,360,17.0,45.0,99,0.00,,,-99.99,Weather View 32 v60,2013-03-21 01:56:00,
2013-03-20 22:01:00,18.0,17.8,29.79,NNW,337,23.0,45.0,99,0.00,,,-99.99,Weather View 32 v60,2013-03-21 02:01:00,
2013-03-20 22:06:00,18.0,16.1,29.79,NNW,337,14.0,45.0,92,0.00,,,-99.99,Weather View 32 v60,2013-03-21 02:06:00,
2013-03-20 22:11:00,18.0,15.8,29.79,NE,45,12.0,34.0,91,0.00,,,-99.99,Weather View 32 v60,2013-03-21 02:11:00,
2013-03-20 22:16:00,19.0,17.1,29.79,North,360,18.0,34.0,92,0.00,,,-99.99,Weather View 32 v60,2013-03-21 02:16:00,
2013-03-20 22:21:00,19.0,15.8,29.79,West,270,10.0,34.0,87,0.00,,,-99.99,Weather View 32 v60,2013-03-21 02:21:00,
2013-03-20 22:26:00,19.0,12.7,29.79,NW,315,6.0,34.0,76,0.00,,,-99.99,Weather View 32 v60,2013-03-21 02:26:00,
2013-03-20 22:31:00,19.0,16.3,29.79,North,360,17.0,34.0,89,0.00,,,-99.99,Weather View 32 v60,2013-03-21 02:31:00,
2013-03-20 22:36:00,19.0,14.1,29.79,North,360,17.0,32.0,81,0.00,,,-99.99,Weather View 32 v60,2013-03-21 02:36:00,
2013-03-20 22:41:00,19.0,13.6,29.78,NNE,22,9.0,32.0,79,0.00,,,-99.99,Weather View 32 v60,2013-03-21 02:41:00,
2013-03-20 22:51:00,19.0,12.4,29.78,NNW,337,10.0,32.0,75,0.00,,,-99.99,Weather View 32 v60,2013-03-21 02:51:00,
2013-03-20 22:56:00,19.0,16.8,29.78,NW,315,17.0,32.0,91,0.00,,,-99.99,Weather View 32 v60,2013-03-21 02:56:00,
2013-03-20 23:01:00,19.0,16.6,29.78,North,360,22.0,32.0,90,0.00,,,-99.99,Weather View 32 v60,2013-03-21 03:01:00,
2013-03-20 23:06:00,19.0,17.1,29.78,North,360,10.0,30.0,92,0.00,,,-99.99,Weather View 32 v60,2013-03-21 03:06:00,
2013-03-20 23:11:00,19.0,17.6,29.78,North,360,17.0,33.0,94,0.00,,,-99.99,Weather View 32 v60,2013-03-21 03:11:00,
2013-03-20 23:16:00,19.0,15.8,29.78,North,360,4.0,33.0,87,0.00,,,-99.99,Weather View 32 v60,2013-03-21 03:16:00,
2013-03-20 23:21:00,19.0,15.5,29.78,North,360,13.0,33.0,86,0.00,,,-99.99,Weather View 32 v60,2013-03-21 03:21:00,
2013-03-20 23:26:00,19.0,17.6,29.78,NW,315,5.0,33.0,94,0.00,,,-99.99,Weather View 32 v60,2013-03-21 03:26:00,
2013-03-20 23:31:00,19.0,16.8,29.78,North,360,12.0,33.0,91,0.00,,,-99.99,Weather View 32 v60,2013-03-21 03:31:00,
2013-03-20 23:36:00,19.0,18.8,29.78,NNW,337,21.0,33.0,99,0.00,,,-99.99,Weather View 32 v60,2013-03-21 03:36:00,
2013-03-20 23:41:00,19.0,17.6,29.78,North,360,15.0,35.0,94,0.00,,,-99.99,Weather View 32 v60,2013-03-21 03:41:00,
2013-03-20 23:46:00,19.0,18.5,29.78,North,360,20.0,35.0,98,0.00,,,-99.99,Weather View 32 v60,2013-03-21 03:46:00,
2013-03-20 23:51:00,17.0,17.0,29.79,NW,315,9.0,35.0,100,0.00,,,-99.99,Weather View 32 v60,2013-03-21 03:51:00,